sensor_id;sensor_type;location;lat;lon;timestamp;P1;durP1;ratioP1;P2;durP2;ratioP2
31652;SDS011;18261;53.648;9.910;2024-01-25T00:01:18;95.82;;;12.63;;
31652;SDS011;18261;53.648;9.910;2024-01-25T00:03:44;127.40;;;14.50;;
31652;SDS011;18261;53.648;9.910;2024-01-25T00:06:10;98.60;;;12.85;;
31652;SDS011;18261;53.648;9.910;2024-01-25T00:08:35;107.05;;;12.27;;
31652;SDS011;18261;53.648;9.910;2024-01-25T00:11:01;117.72;;;15.15;;
31652;SDS011;18261;53.648;9.910;2024-01-25T00:13:27;114.15;;;13.82;;
31652;SDS011;18261;53.648;9.910;2024-01-25T00:15:53;130.48;;;11.95;;
31652;SDS011;18261;53.648;9.910;2024-01-25T00:18:19;111.70;;;13.75;;
31652;SDS011;18261;53.648;9.910;2024-01-25T00:20:44;117.25;;;14.13;;
31652;SDS011;18261;53.648;9.910;2024-01-25T00:23:10;123.18;;;13.02;;
31652;SDS011;18261;53.648;9.910;2024-01-25T00:25:36;99.95;;;13.00;;
31652;SDS011;18261;53.648;9.910;2024-01-25T00:28:01;100.55;;;12.52;;
31652;SDS011;18261;53.648;9.910;2024-01-25T00:30:27;121.15;;;15.88;;
31652;SDS011;18261;53.648;9.910;2024-01-25T00:32:53;104.55;;;14.15;;
31652;SDS011;18261;53.648;9.910;2024-01-25T00:35:18;107.53;;;12.82;;
31652;SDS011;18261;53.648;9.910;2024-01-25T00:37:44;110.97;;;13.30;;
31652;SDS011;18261;53.648;9.910;2024-01-25T00:40:10;116.40;;;14.38;;
31652;SDS011;18261;53.648;9.910;2024-01-25T00:42:41;116.78;;;14.48;;
31652;SDS011;18261;53.648;9.910;2024-01-25T00:45:08;105.20;;;12.80;;
31652;SDS011;18261;53.648;9.910;2024-01-25T00:47:35;107.63;;;13.27;;
31652;SDS011;18261;53.648;9.910;2024-01-25T00:50:01;112.97;;;14.60;;
31652;SDS011;18261;53.648;9.910;2024-01-25T00:52:26;105.95;;;11.73;;
31652;SDS011;18261;53.648;9.910;2024-01-25T00:54:52;114.18;;;12.85;;
31652;SDS011;18261;53.648;9.910;2024-01-25T00:57:18;93.95;;;11.98;;
31652;SDS011;18261;53.648;9.910;2024-01-25T00:59:44;113.05;;;14.00;;
31652;SDS011;18261;53.648;9.910;2024-01-25T01:02:11;112.13;;;13.68;;
31652;SDS011;18261;53.648;9.910;2024-01-25T01:04:38;93.00;;;11.35;;
31652;SDS011;18261;53.648;9.910;2024-01-25T01:07:05;104.22;;;12.38;;
31652;SDS011;18261;53.648;9.910;2024-01-25T01:09:32;103.40;;;11.70;;
31652;SDS011;18261;53.648;9.910;2024-01-25T01:11:58;109.95;;;12.27;;
31652;SDS011;18261;53.648;9.910;2024-01-25T01:14:23;102.70;;;12.73;;
31652;SDS011;18261;53.648;9.910;2024-01-25T01:16:49;91.82;;;10.77;;
31652;SDS011;18261;53.648;9.910;2024-01-25T01:19:15;83.15;;;11.38;;
31652;SDS011;18261;53.648;9.910;2024-01-25T01:21:41;92.18;;;11.65;;
31652;SDS011;18261;53.648;9.910;2024-01-25T01:24:09;109.15;;;12.48;;
31652;SDS011;18261;53.648;9.910;2024-01-25T01:26:35;109.35;;;12.98;;
31652;SDS011;18261;53.648;9.910;2024-01-25T01:29:01;104.88;;;12.10;;
31652;SDS011;18261;53.648;9.910;2024-01-25T01:31:27;95.93;;;13.30;;
31652;SDS011;18261;53.648;9.910;2024-01-25T01:33:52;106.03;;;12.25;;
31652;SDS011;18261;53.648;9.910;2024-01-25T01:36:18;95.22;;;10.85;;
31652;SDS011;18261;53.648;9.910;2024-01-25T01:38:44;110.80;;;12.50;;
31652;SDS011;18261;53.648;9.910;2024-01-25T01:41:10;115.43;;;13.75;;
31652;SDS011;18261;53.648;9.910;2024-01-25T01:43:39;102.93;;;11.25;;
31652;SDS011;18261;53.648;9.910;2024-01-25T01:46:29;106.20;;;12.13;;
31652;SDS011;18261;53.648;9.910;2024-01-25T01:49:02;95.43;;;11.98;;
31652;SDS011;18261;53.648;9.910;2024-01-25T01:51:29;97.15;;;11.55;;
31652;SDS011;18261;53.648;9.910;2024-01-25T01:53:56;87.28;;;11.13;;
31652;SDS011;18261;53.648;9.910;2024-01-25T01:56:23;81.47;;;10.32;;
31652;SDS011;18261;53.648;9.910;2024-01-25T01:58:51;98.25;;;11.02;;
31652;SDS011;18261;53.648;9.910;2024-01-25T02:01:18;94.15;;;11.43;;
31652;SDS011;18261;53.648;9.910;2024-01-25T02:03:45;102.45;;;11.20;;
31652;SDS011;18261;53.648;9.910;2024-01-25T02:06:10;97.63;;;10.77;;
31652;SDS011;18261;53.648;9.910;2024-01-25T02:08:36;96.00;;;11.70;;
31652;SDS011;18261;53.648;9.910;2024-01-25T02:11:02;91.18;;;11.13;;
31652;SDS011;18261;53.648;9.910;2024-01-25T02:13:27;99.03;;;10.32;;
31652;SDS011;18261;53.648;9.910;2024-01-25T02:15:53;87.80;;;12.75;;
31652;SDS011;18261;53.648;9.910;2024-01-25T02:18:18;99.35;;;10.80;;
31652;SDS011;18261;53.648;9.910;2024-01-25T02:20:44;76.95;;;10.25;;
31652;SDS011;18261;53.648;9.910;2024-01-25T02:23:10;101.10;;;11.45;;
31652;SDS011;18261;53.648;9.910;2024-01-25T02:25:35;98.78;;;11.73;;
31652;SDS011;18261;53.648;9.910;2024-01-25T02:28:01;103.45;;;11.20;;
31652;SDS011;18261;53.648;9.910;2024-01-25T02:30:26;110.60;;;12.35;;
31652;SDS011;18261;53.648;9.910;2024-01-25T02:32:52;99.43;;;10.90;;
31652;SDS011;18261;53.648;9.910;2024-01-25T02:35:18;95.53;;;12.45;;
31652;SDS011;18261;53.648;9.910;2024-01-25T02:37:43;91.15;;;10.63;;
31652;SDS011;18261;53.648;9.910;2024-01-25T02:40:09;83.60;;;11.27;;
31652;SDS011;18261;53.648;9.910;2024-01-25T02:42:35;103.20;;;11.60;;
31652;SDS011;18261;53.648;9.910;2024-01-25T02:45:01;81.10;;;11.02;;
31652;SDS011;18261;53.648;9.910;2024-01-25T02:47:26;79.80;;;10.90;;
31652;SDS011;18261;53.648;9.910;2024-01-25T02:49:52;101.38;;;11.82;;
31652;SDS011;18261;53.648;9.910;2024-01-25T02:52:17;87.53;;;10.48;;
31652;SDS011;18261;53.648;9.910;2024-01-25T02:54:43;92.65;;;10.75;;
31652;SDS011;18261;53.648;9.910;2024-01-25T02:57:09;93.45;;;11.25;;
31652;SDS011;18261;53.648;9.910;2024-01-25T02:59:35;84.50;;;11.35;;
31652;SDS011;18261;53.648;9.910;2024-01-25T03:02:00;102.05;;;11.43;;
31652;SDS011;18261;53.648;9.910;2024-01-25T03:04:26;91.45;;;12.40;;
31652;SDS011;18261;53.648;9.910;2024-01-25T03:06:51;93.82;;;10.82;;
31652;SDS011;18261;53.648;9.910;2024-01-25T03:09:17;97.13;;;11.55;;
31652;SDS011;18261;53.648;9.910;2024-01-25T03:11:43;108.88;;;12.48;;
31652;SDS011;18261;53.648;9.910;2024-01-25T03:14:08;93.43;;;10.98;;
31652;SDS011;18261;53.648;9.910;2024-01-25T03:16:34;99.82;;;11.38;;
31652;SDS011;18261;53.648;9.910;2024-01-25T03:18:59;82.82;;;10.35;;
31652;SDS011;18261;53.648;9.910;2024-01-25T03:21:25;88.43;;;10.60;;
31652;SDS011;18261;53.648;9.910;2024-01-25T03:23:50;118.63;;;12.73;;
31652;SDS011;18261;53.648;9.910;2024-01-25T03:26:16;113.13;;;13.20;;
31652;SDS011;18261;53.648;9.910;2024-01-25T03:28:42;94.32;;;10.90;;
31652;SDS011;18261;53.648;9.910;2024-01-25T03:31:07;101.00;;;11.55;;
31652;SDS011;18261;53.648;9.910;2024-01-25T03:33:33;92.45;;;12.07;;
31652;SDS011;18261;53.648;9.910;2024-01-25T03:36:05;100.47;;;13.23;;
31652;SDS011;18261;53.648;9.910;2024-01-25T03:38:31;96.32;;;11.57;;
31652;SDS011;18261;53.648;9.910;2024-01-25T03:40:56;94.07;;;11.18;;
31652;SDS011;18261;53.648;9.910;2024-01-25T03:43:24;99.40;;;12.20;;
31652;SDS011;18261;53.648;9.910;2024-01-25T03:45:50;96.72;;;11.43;;
31652;SDS011;18261;53.648;9.910;2024-01-25T03:48:16;101.40;;;12.07;;
31652;SDS011;18261;53.648;9.910;2024-01-25T03:50:41;90.55;;;12.18;;
31652;SDS011;18261;53.648;9.910;2024-01-25T03:53:07;92.80;;;11.20;;
31652;SDS011;18261;53.648;9.910;2024-01-25T03:55:32;104.70;;;11.13;;
31652;SDS011;18261;53.648;9.910;2024-01-25T03:57:58;103.65;;;12.35;;
31652;SDS011;18261;53.648;9.910;2024-01-25T04:00:24;99.90;;;10.43;;
31652;SDS011;18261;53.648;9.910;2024-01-25T04:02:50;90.72;;;10.93;;
31652;SDS011;18261;53.648;9.910;2024-01-25T04:05:15;88.78;;;11.27;;
31652;SDS011;18261;53.648;9.910;2024-01-25T04:07:41;96.63;;;11.20;;
31652;SDS011;18261;53.648;9.910;2024-01-25T04:10:07;105.45;;;13.43;;
31652;SDS011;18261;53.648;9.910;2024-01-25T04:12:32;97.63;;;13.05;;
31652;SDS011;18261;53.648;9.910;2024-01-25T04:14:58;108.75;;;12.18;;
31652;SDS011;18261;53.648;9.910;2024-01-25T04:17:24;107.28;;;12.40;;
31652;SDS011;18261;53.648;9.910;2024-01-25T04:19:50;101.93;;;11.77;;
31652;SDS011;18261;53.648;9.910;2024-01-25T04:22:16;94.60;;;11.48;;
31652;SDS011;18261;53.648;9.910;2024-01-25T04:24:41;112.68;;;13.25;;
31652;SDS011;18261;53.648;9.910;2024-01-25T04:27:08;94.13;;;10.52;;
31652;SDS011;18261;53.648;9.910;2024-01-25T04:29:38;96.03;;;11.63;;
31652;SDS011;18261;53.648;9.910;2024-01-25T04:32:05;108.30;;;12.98;;
31652;SDS011;18261;53.648;9.910;2024-01-25T04:34:31;98.75;;;12.48;;
31652;SDS011;18261;53.648;9.910;2024-01-25T04:36:56;97.68;;;11.25;;
31652;SDS011;18261;53.648;9.910;2024-01-25T04:39:22;115.50;;;11.73;;
31652;SDS011;18261;53.648;9.910;2024-01-25T04:41:47;106.30;;;11.18;;
31652;SDS011;18261;53.648;9.910;2024-01-25T04:44:13;82.97;;;10.73;;
31652;SDS011;18261;53.648;9.910;2024-01-25T04:46:39;100.75;;;12.65;;
31652;SDS011;18261;53.648;9.910;2024-01-25T04:49:04;87.90;;;10.90;;
31652;SDS011;18261;53.648;9.910;2024-01-25T04:51:30;95.13;;;11.38;;
31652;SDS011;18261;53.648;9.910;2024-01-25T04:53:55;95.80;;;10.73;;
31652;SDS011;18261;53.648;9.910;2024-01-25T04:56:21;92.80;;;11.88;;
31652;SDS011;18261;53.648;9.910;2024-01-25T04:58:46;101.80;;;12.45;;
31652;SDS011;18261;53.648;9.910;2024-01-25T05:01:12;110.65;;;13.88;;
31652;SDS011;18261;53.648;9.910;2024-01-25T05:03:38;100.97;;;11.57;;
31652;SDS011;18261;53.648;9.910;2024-01-25T05:06:03;95.80;;;11.10;;
31652;SDS011;18261;53.648;9.910;2024-01-25T05:08:29;86.60;;;10.27;;
31652;SDS011;18261;53.648;9.910;2024-01-25T05:10:54;95.50;;;11.18;;
31652;SDS011;18261;53.648;9.910;2024-01-25T05:13:20;90.47;;;10.98;;
31652;SDS011;18261;53.648;9.910;2024-01-25T05:15:46;101.82;;;11.57;;
31652;SDS011;18261;53.648;9.910;2024-01-25T05:18:11;115.95;;;12.77;;
31652;SDS011;18261;53.648;9.910;2024-01-25T05:20:37;91.43;;;12.00;;
31652;SDS011;18261;53.648;9.910;2024-01-25T05:23:03;92.07;;;10.93;;
31652;SDS011;18261;53.648;9.910;2024-01-25T05:25:29;115.90;;;11.63;;
31652;SDS011;18261;53.648;9.910;2024-01-25T05:27:55;115.85;;;12.70;;
31652;SDS011;18261;53.648;9.910;2024-01-25T05:30:22;123.13;;;11.32;;
31652;SDS011;18261;53.648;9.910;2024-01-25T05:32:48;111.07;;;12.27;;
31652;SDS011;18261;53.648;9.910;2024-01-25T05:35:14;96.55;;;10.85;;
31652;SDS011;18261;53.648;9.910;2024-01-25T05:37:41;100.05;;;11.32;;
31652;SDS011;18261;53.648;9.910;2024-01-25T05:40:07;110.15;;;11.27;;
31652;SDS011;18261;53.648;9.910;2024-01-25T05:42:34;92.22;;;11.10;;
31652;SDS011;18261;53.648;9.910;2024-01-25T05:45:00;86.22;;;12.40;;
31652;SDS011;18261;53.648;9.910;2024-01-25T05:47:26;120.43;;;12.80;;
31652;SDS011;18261;53.648;9.910;2024-01-25T05:49:52;94.63;;;10.68;;
31652;SDS011;18261;53.648;9.910;2024-01-25T05:52:17;109.20;;;13.10;;
31652;SDS011;18261;53.648;9.910;2024-01-25T05:54:43;98.53;;;11.07;;
31652;SDS011;18261;53.648;9.910;2024-01-25T05:57:09;91.82;;;10.57;;
31652;SDS011;18261;53.648;9.910;2024-01-25T05:59:35;85.10;;;10.70;;
31652;SDS011;18261;53.648;9.910;2024-01-25T06:02:00;89.32;;;10.70;;
31652;SDS011;18261;53.648;9.910;2024-01-25T06:04:26;88.95;;;11.43;;
31652;SDS011;18261;53.648;9.910;2024-01-25T06:06:51;98.13;;;11.80;;
31652;SDS011;18261;53.648;9.910;2024-01-25T06:09:17;92.50;;;11.35;;
31652;SDS011;18261;53.648;9.910;2024-01-25T06:11:43;97.30;;;10.93;;
31652;SDS011;18261;53.648;9.910;2024-01-25T06:14:08;95.30;;;12.07;;
31652;SDS011;18261;53.648;9.910;2024-01-25T06:16:34;95.78;;;10.93;;
31652;SDS011;18261;53.648;9.910;2024-01-25T06:19:00;93.05;;;10.95;;
31652;SDS011;18261;53.648;9.910;2024-01-25T06:21:27;88.07;;;11.00;;
31652;SDS011;18261;53.648;9.910;2024-01-25T06:23:53;103.88;;;11.75;;
31652;SDS011;18261;53.648;9.910;2024-01-25T06:26:18;83.88;;;9.43;;
31652;SDS011;18261;53.648;9.910;2024-01-25T06:28:44;82.82;;;9.40;;
31652;SDS011;18261;53.648;9.910;2024-01-25T06:31:11;92.75;;;9.88;;
31652;SDS011;18261;53.648;9.910;2024-01-25T06:33:37;104.57;;;11.82;;
31652;SDS011;18261;53.648;9.910;2024-01-25T06:36:02;100.28;;;11.93;;
31652;SDS011;18261;53.648;9.910;2024-01-25T06:38:28;74.90;;;9.90;;
31652;SDS011;18261;53.648;9.910;2024-01-25T06:40:54;87.70;;;10.50;;
31652;SDS011;18261;53.648;9.910;2024-01-25T06:43:19;91.30;;;11.23;;
31652;SDS011;18261;53.648;9.910;2024-01-25T06:45:45;86.30;;;11.75;;
31652;SDS011;18261;53.648;9.910;2024-01-25T06:48:10;77.88;;;10.15;;
31652;SDS011;18261;53.648;9.910;2024-01-25T06:50:36;101.85;;;11.15;;
31652;SDS011;18261;53.648;9.910;2024-01-25T06:53:02;106.32;;;11.75;;
31652;SDS011;18261;53.648;9.910;2024-01-25T06:55:28;82.80;;;10.82;;
31652;SDS011;18261;53.648;9.910;2024-01-25T06:57:54;92.82;;;10.18;;
31652;SDS011;18261;53.648;9.910;2024-01-25T07:00:20;90.03;;;11.60;;
31652;SDS011;18261;53.648;9.910;2024-01-25T07:02:46;90.32;;;11.05;;
31652;SDS011;18261;53.648;9.910;2024-01-25T07:05:12;92.05;;;10.98;;
31652;SDS011;18261;53.648;9.910;2024-01-25T07:07:37;92.78;;;10.88;;
31652;SDS011;18261;53.648;9.910;2024-01-25T07:10:05;96.80;;;11.07;;
31652;SDS011;18261;53.648;9.910;2024-01-25T07:12:31;87.15;;;10.68;;
31652;SDS011;18261;53.648;9.910;2024-01-25T07:14:57;91.53;;;11.48;;
31652;SDS011;18261;53.648;9.910;2024-01-25T07:17:22;111.03;;;12.90;;
31652;SDS011;18261;53.648;9.910;2024-01-25T07:19:48;96.32;;;11.52;;
31652;SDS011;18261;53.648;9.910;2024-01-25T07:22:13;94.03;;;10.80;;
31652;SDS011;18261;53.648;9.910;2024-01-25T07:24:40;81.68;;;10.32;;
31652;SDS011;18261;53.648;9.910;2024-01-25T07:27:06;98.03;;;11.10;;
31652;SDS011;18261;53.648;9.910;2024-01-25T07:29:31;90.20;;;10.77;;
31652;SDS011;18261;53.648;9.910;2024-01-25T07:31:57;83.60;;;10.48;;
31652;SDS011;18261;53.648;9.910;2024-01-25T07:34:22;87.13;;;10.52;;
31652;SDS011;18261;53.648;9.910;2024-01-25T07:36:48;96.47;;;10.85;;
31652;SDS011;18261;53.648;9.910;2024-01-25T07:39:13;107.63;;;12.95;;
31652;SDS011;18261;53.648;9.910;2024-01-25T07:41:39;101.80;;;11.45;;
31652;SDS011;18261;53.648;9.910;2024-01-25T07:44:05;93.78;;;11.13;;
31652;SDS011;18261;53.648;9.910;2024-01-25T07:46:31;94.50;;;10.80;;
31652;SDS011;18261;53.648;9.910;2024-01-25T07:48:56;90.63;;;11.27;;
31652;SDS011;18261;53.648;9.910;2024-01-25T07:51:22;108.20;;;11.70;;
31652;SDS011;18261;53.648;9.910;2024-01-25T07:53:47;76.13;;;10.15;;
31652;SDS011;18261;53.648;9.910;2024-01-25T07:56:13;88.82;;;10.10;;
31652;SDS011;18261;53.648;9.910;2024-01-25T07:58:39;95.88;;;11.43;;
31652;SDS011;18261;53.648;9.910;2024-01-25T08:01:05;105.78;;;12.00;;
31652;SDS011;18261;53.648;9.910;2024-01-25T08:03:31;84.32;;;11.50;;
31652;SDS011;18261;53.648;9.910;2024-01-25T08:05:57;92.25;;;10.57;;
31652;SDS011;18261;53.648;9.910;2024-01-25T08:08:24;89.60;;;11.80;;
31652;SDS011;18261;53.648;9.910;2024-01-25T08:10:49;96.55;;;9.77;;
31652;SDS011;18261;53.648;9.910;2024-01-25T08:13:15;104.60;;;11.77;;
31652;SDS011;18261;53.648;9.910;2024-01-25T08:15:40;97.70;;;11.40;;
31652;SDS011;18261;53.648;9.910;2024-01-25T08:18:06;92.43;;;10.45;;
31652;SDS011;18261;53.648;9.910;2024-01-25T08:20:32;87.80;;;11.20;;
31652;SDS011;18261;53.648;9.910;2024-01-25T08:22:58;85.55;;;11.23;;
31652;SDS011;18261;53.648;9.910;2024-01-25T08:25:24;89.63;;;9.60;;
31652;SDS011;18261;53.648;9.910;2024-01-25T08:27:50;99.50;;;11.73;;
31652;SDS011;18261;53.648;9.910;2024-01-25T08:30:15;89.93;;;10.85;;
31652;SDS011;18261;53.648;9.910;2024-01-25T08:32:41;76.43;;;9.90;;
31652;SDS011;18261;53.648;9.910;2024-01-25T08:35:07;98.68;;;10.27;;
31652;SDS011;18261;53.648;9.910;2024-01-25T08:37:41;82.25;;;9.68;;
31652;SDS011;18261;53.648;9.910;2024-01-25T08:40:18;82.18;;;10.80;;
31652;SDS011;18261;53.648;9.910;2024-01-25T08:42:44;73.30;;;10.95;;
31652;SDS011;18261;53.648;9.910;2024-01-25T08:45:10;104.10;;;12.57;;
31652;SDS011;18261;53.648;9.910;2024-01-25T08:47:36;107.85;;;12.68;;
31652;SDS011;18261;53.648;9.910;2024-01-25T08:50:01;82.43;;;9.95;;
31652;SDS011;18261;53.648;9.910;2024-01-25T08:52:28;100.45;;;10.82;;
31652;SDS011;18261;53.648;9.910;2024-01-25T08:54:54;101.13;;;10.85;;
31652;SDS011;18261;53.648;9.910;2024-01-25T08:57:20;88.75;;;9.93;;
31652;SDS011;18261;53.648;9.910;2024-01-25T08:59:45;85.40;;;10.32;;
31652;SDS011;18261;53.648;9.910;2024-01-25T09:02:11;94.55;;;11.00;;
31652;SDS011;18261;53.648;9.910;2024-01-25T09:04:37;97.25;;;12.02;;
31652;SDS011;18261;53.648;9.910;2024-01-25T09:07:03;95.45;;;10.55;;
31652;SDS011;18261;53.648;9.910;2024-01-25T09:09:28;80.80;;;10.38;;
31652;SDS011;18261;53.648;9.910;2024-01-25T09:11:54;98.95;;;11.73;;
31652;SDS011;18261;53.648;9.910;2024-01-25T09:14:20;88.05;;;10.25;;
31652;SDS011;18261;53.648;9.910;2024-01-25T09:16:46;83.70;;;9.60;;
31652;SDS011;18261;53.648;9.910;2024-01-25T09:19:13;90.32;;;9.85;;
31652;SDS011;18261;53.648;9.910;2024-01-25T09:21:38;84.57;;;9.57;;
31652;SDS011;18261;53.648;9.910;2024-01-25T09:24:06;95.55;;;10.63;;
31652;SDS011;18261;53.648;9.910;2024-01-25T09:26:32;88.55;;;10.88;;
31652;SDS011;18261;53.648;9.910;2024-01-25T09:28:58;91.88;;;10.18;;
31652;SDS011;18261;53.648;9.910;2024-01-25T09:31:24;83.82;;;10.70;;
31652;SDS011;18261;53.648;9.910;2024-01-25T09:33:49;101.35;;;11.90;;
31652;SDS011;18261;53.648;9.910;2024-01-25T09:36:16;86.22;;;10.82;;
31652;SDS011;18261;53.648;9.910;2024-01-25T09:38:42;105.32;;;11.85;;
31652;SDS011;18261;53.648;9.910;2024-01-25T09:41:08;84.68;;;9.90;;
31652;SDS011;18261;53.648;9.910;2024-01-25T09:43:34;96.93;;;11.10;;
31652;SDS011;18261;53.648;9.910;2024-01-25T09:46:01;88.32;;;12.32;;
31652;SDS011;18261;53.648;9.910;2024-01-25T09:48:27;90.13;;;9.90;;
31652;SDS011;18261;53.648;9.910;2024-01-25T09:50:54;78.07;;;9.57;;
31652;SDS011;18261;53.648;9.910;2024-01-25T09:53:21;84.95;;;9.65;;
31652;SDS011;18261;53.648;9.910;2024-01-25T09:55:51;97.32;;;9.65;;
31652;SDS011;18261;53.648;9.910;2024-01-25T09:58:29;88.30;;;10.63;;
31652;SDS011;18261;53.648;9.910;2024-01-25T10:01:02;93.90;;;9.98;;
31652;SDS011;18261;53.648;9.910;2024-01-25T10:03:28;81.82;;;10.05;;
31652;SDS011;18261;53.648;9.910;2024-01-25T10:05:55;81.00;;;10.50;;
31652;SDS011;18261;53.648;9.910;2024-01-25T10:08:21;78.75;;;8.98;;
31652;SDS011;18261;53.648;9.910;2024-01-25T10:10:48;79.93;;;8.80;;
31652;SDS011;18261;53.648;9.910;2024-01-25T10:13:14;81.25;;;10.02;;
31652;SDS011;18261;53.648;9.910;2024-01-25T10:15:40;86.85;;;10.07;;
31652;SDS011;18261;53.648;9.910;2024-01-25T10:18:07;80.47;;;10.48;;
31652;SDS011;18261;53.648;9.910;2024-01-25T10:20:38;81.90;;;9.98;;
31652;SDS011;18261;53.648;9.910;2024-01-25T10:23:09;90.10;;;9.50;;
31652;SDS011;18261;53.648;9.910;2024-01-25T10:25:35;79.07;;;9.75;;
31652;SDS011;18261;53.648;9.910;2024-01-25T10:28:02;77.05;;;8.57;;
31652;SDS011;18261;53.648;9.910;2024-01-25T10:30:31;69.88;;;9.05;;
31652;SDS011;18261;53.648;9.910;2024-01-25T10:32:58;83.90;;;10.15;;
31652;SDS011;18261;53.648;9.910;2024-01-25T10:35:24;82.55;;;9.40;;
31652;SDS011;18261;53.648;9.910;2024-01-25T10:37:51;67.05;;;8.77;;
31652;SDS011;18261;53.648;9.910;2024-01-25T10:40:20;73.82;;;8.32;;
31652;SDS011;18261;53.648;9.910;2024-01-25T10:42:46;77.10;;;9.00;;
31652;SDS011;18261;53.648;9.910;2024-01-25T10:45:12;76.20;;;9.50;;
31652;SDS011;18261;53.648;9.910;2024-01-25T10:47:38;77.97;;;9.07;;
31652;SDS011;18261;53.648;9.910;2024-01-25T10:50:06;62.38;;;7.32;;
31652;SDS011;18261;53.648;9.910;2024-01-25T10:52:35;67.35;;;8.15;;
31652;SDS011;18261;53.648;9.910;2024-01-25T10:55:04;86.50;;;10.15;;
31652;SDS011;18261;53.648;9.910;2024-01-25T10:57:37;67.80;;;8.00;;
31652;SDS011;18261;53.648;9.910;2024-01-25T11:00:09;81.93;;;9.10;;
31652;SDS011;18261;53.648;9.910;2024-01-25T11:02:39;72.10;;;17.70;;
31652;SDS011;18261;53.648;9.910;2024-01-25T11:05:09;58.97;;;7.43;;
31652;SDS011;18261;53.648;9.910;2024-01-25T11:07:47;55.05;;;7.47;;
31652;SDS011;18261;53.648;9.910;2024-01-25T11:10:18;51.00;;;6.65;;
31652;SDS011;18261;53.648;9.910;2024-01-25T11:12:58;72.35;;;8.95;;
31652;SDS011;18261;53.648;9.910;2024-01-25T11:15:32;68.88;;;8.50;;
31652;SDS011;18261;53.648;9.910;2024-01-25T11:18:00;61.40;;;6.85;;
31652;SDS011;18261;53.648;9.910;2024-01-25T11:20:27;67.45;;;7.82;;
31652;SDS011;18261;53.648;9.910;2024-01-25T11:23:04;56.00;;;7.57;;
31652;SDS011;18261;53.648;9.910;2024-01-25T11:25:31;71.22;;;9.95;;
31652;SDS011;18261;53.648;9.910;2024-01-25T11:27:58;63.53;;;9.02;;
31652;SDS011;18261;53.648;9.910;2024-01-25T11:30:26;72.18;;;10.60;;
31652;SDS011;18261;53.648;9.910;2024-01-25T11:32:54;89.95;;;9.45;;
31652;SDS011;18261;53.648;9.910;2024-01-25T11:35:20;82.53;;;9.38;;
31652;SDS011;18261;53.648;9.910;2024-01-25T11:37:47;72.47;;;9.07;;
31652;SDS011;18261;53.648;9.910;2024-01-25T11:40:14;73.53;;;8.65;;
31652;SDS011;18261;53.648;9.910;2024-01-25T11:42:44;81.82;;;9.98;;
31652;SDS011;18261;53.648;9.910;2024-01-25T11:45:12;79.50;;;10.00;;
31652;SDS011;18261;53.648;9.910;2024-01-25T11:47:39;70.10;;;9.38;;
31652;SDS011;18261;53.648;9.910;2024-01-25T11:50:06;64.13;;;9.05;;
31652;SDS011;18261;53.648;9.910;2024-01-25T11:52:33;85.05;;;9.15;;
31652;SDS011;18261;53.648;9.910;2024-01-25T11:55:08;70.55;;;8.60;;
31652;SDS011;18261;53.648;9.910;2024-01-25T11:57:39;58.58;;;7.68;;
31652;SDS011;18261;53.648;9.910;2024-01-25T12:00:09;70.70;;;9.93;;
31652;SDS011;18261;53.648;9.910;2024-01-25T12:02:37;68.45;;;9.57;;
31652;SDS011;18261;53.648;9.910;2024-01-25T12:05:03;68.28;;;8.85;;
31652;SDS011;18261;53.648;9.910;2024-01-25T12:07:30;64.88;;;8.15;;
31652;SDS011;18261;53.648;9.910;2024-01-25T12:09:57;74.93;;;9.60;;
31652;SDS011;18261;53.648;9.910;2024-01-25T12:12:22;81.78;;;9.88;;
31652;SDS011;18261;53.648;9.910;2024-01-25T12:14:48;62.45;;;7.28;;
31652;SDS011;18261;53.648;9.910;2024-01-25T12:17:14;59.30;;;8.63;;
31652;SDS011;18261;53.648;9.910;2024-01-25T12:19:39;84.45;;;10.57;;
31652;SDS011;18261;53.648;9.910;2024-01-25T12:22:05;82.97;;;10.18;;
31652;SDS011;18261;53.648;9.910;2024-01-25T12:24:30;71.10;;;9.30;;
31652;SDS011;18261;53.648;9.910;2024-01-25T12:26:56;67.40;;;8.60;;
31652;SDS011;18261;53.648;9.910;2024-01-25T12:29:22;73.57;;;8.88;;
31652;SDS011;18261;53.648;9.910;2024-01-25T12:31:48;70.38;;;8.85;;
31652;SDS011;18261;53.648;9.910;2024-01-25T12:34:13;71.60;;;8.73;;
31652;SDS011;18261;53.648;9.910;2024-01-25T12:36:42;69.22;;;9.13;;
31652;SDS011;18261;53.648;9.910;2024-01-25T12:39:08;72.85;;;9.15;;
31652;SDS011;18261;53.648;9.910;2024-01-25T12:41:34;70.57;;;9.60;;
31652;SDS011;18261;53.648;9.910;2024-01-25T12:44:00;81.93;;;11.02;;
31652;SDS011;18261;53.648;9.910;2024-01-25T12:46:26;79.45;;;9.20;;
31652;SDS011;18261;53.648;9.910;2024-01-25T12:48:52;67.13;;;8.30;;
31652;SDS011;18261;53.648;9.910;2024-01-25T12:51:20;71.13;;;8.05;;
31652;SDS011;18261;53.648;9.910;2024-01-25T12:53:46;65.97;;;9.60;;
31652;SDS011;18261;53.648;9.910;2024-01-25T12:56:15;57.53;;;7.25;;
31652;SDS011;18261;53.648;9.910;2024-01-25T12:58:40;74.55;;;8.82;;
31652;SDS011;18261;53.648;9.910;2024-01-25T13:01:06;74.72;;;8.68;;
31652;SDS011;18261;53.648;9.910;2024-01-25T13:03:32;87.97;;;9.63;;
31652;SDS011;18261;53.648;9.910;2024-01-25T13:05:57;65.18;;;8.43;;
31652;SDS011;18261;53.648;9.910;2024-01-25T13:08:23;75.47;;;9.02;;
31652;SDS011;18261;53.648;9.910;2024-01-25T13:10:49;58.25;;;8.30;;
31652;SDS011;18261;53.648;9.910;2024-01-25T13:13:14;68.57;;;8.45;;
31652;SDS011;18261;53.648;9.910;2024-01-25T13:15:40;63.42;;;8.18;;
31652;SDS011;18261;53.648;9.910;2024-01-25T13:18:05;76.60;;;8.23;;
31652;SDS011;18261;53.648;9.910;2024-01-25T13:20:31;70.13;;;7.88;;
31652;SDS011;18261;53.648;9.910;2024-01-25T13:22:57;59.67;;;9.25;;
31652;SDS011;18261;53.648;9.910;2024-01-25T13:25:22;77.22;;;8.95;;
31652;SDS011;18261;53.648;9.910;2024-01-25T13:27:48;68.10;;;8.00;;
31652;SDS011;18261;53.648;9.910;2024-01-25T13:30:13;68.28;;;8.15;;
31652;SDS011;18261;53.648;9.910;2024-01-25T13:32:39;73.80;;;8.80;;
31652;SDS011;18261;53.648;9.910;2024-01-25T13:35:05;75.93;;;7.05;;
31652;SDS011;18261;53.648;9.910;2024-01-25T13:37:31;72.45;;;7.68;;
31652;SDS011;18261;53.648;9.910;2024-01-25T13:39:57;70.90;;;7.65;;
31652;SDS011;18261;53.648;9.910;2024-01-25T13:42:22;71.18;;;8.48;;
31652;SDS011;18261;53.648;9.910;2024-01-25T13:44:48;69.80;;;8.52;;
31652;SDS011;18261;53.648;9.910;2024-01-25T13:47:13;65.45;;;8.23;;
31652;SDS011;18261;53.648;9.910;2024-01-25T13:49:39;77.97;;;10.05;;
31652;SDS011;18261;53.648;9.910;2024-01-25T13:52:05;70.50;;;9.35;;
31652;SDS011;18261;53.648;9.910;2024-01-25T13:54:30;61.95;;;7.93;;
31652;SDS011;18261;53.648;9.910;2024-01-25T13:56:56;52.97;;;7.95;;
31652;SDS011;18261;53.648;9.910;2024-01-25T13:59:21;70.15;;;9.02;;
31652;SDS011;18261;53.648;9.910;2024-01-25T14:01:47;56.67;;;7.07;;
31652;SDS011;18261;53.648;9.910;2024-01-25T14:04:14;53.85;;;7.40;;
31652;SDS011;18261;53.648;9.910;2024-01-25T14:06:40;55.10;;;8.00;;
31652;SDS011;18261;53.648;9.910;2024-01-25T14:09:06;63.22;;;8.35;;
31652;SDS011;18261;53.648;9.910;2024-01-25T14:11:31;57.72;;;8.85;;
31652;SDS011;18261;53.648;9.910;2024-01-25T14:13:57;61.85;;;8.38;;
31652;SDS011;18261;53.648;9.910;2024-01-25T14:16:22;52.97;;;8.00;;
31652;SDS011;18261;53.648;9.910;2024-01-25T14:18:48;65.50;;;9.93;;